Time;durP1;ratioP1;P1;durP2;ratioP2;P2;SDS_P1;SDS_P2;PMS_P1;PMS_P2;Temp;Humidity;BMP_temperature;BMP_pressure;BME280_temperature;BME280_humidity;BME280_pressure;Samples;Min_cycle;Max_cycle;Signal;HPM_P1;HPM_P2
2021/12/13 00:02:44;;;;;;;1.73;1.42;;;22.30;46.90;;;;;;5053100;28;43494;-62
2021/12/13 00:05:18;;;;;;;2.60;1.40;;;22.30;46.90;;;;;;5059023;28;43984;-64
2021/12/13 00:07:55;;;;;;;1.63;1.52;;;22.30;46.90;;;;;;5067207;28;43459;-64
2021/12/13 00:10:29;;;;;;;2.97;1.60;;;22.30;46.90;;;;;;5064040;28;43461;-64
2021/12/13 00:13:03;;;;;;;1.98;1.50;;;22.30;46.90;;;;;;5061440;28;43475;-63
2021/12/13 00:15:36;;;;;;;2.42;1.60;;;22.30;46.90;;;;;;5067922;28;44856;-65
2021/12/13 00:18:07;;;;;;;1.83;1.48;;;22.30;46.90;;;;;;5061850;28;43891;-63
2021/12/13 00:20:44;;;;;;;2.10;1.52;;;22.30;46.90;;;;;;5057571;28;43548;-62
2021/12/13 00:23:20;;;;;;;2.05;1.45;;;22.30;47.00;;;;;;5056259;28;43500;-64
2021/12/13 00:25:57;;;;;;;1.95;1.52;;;22.30;47.30;;;;;;5070075;28;43793;-64
2021/12/13 00:28:31;;;;;;;1.98;1.60;;;22.30;47.00;;;;;;5072085;28;43428;-64
2021/12/13 00:31:25;;;;;;;2.03;1.55;;;22.20;47.00;;;;;;5049880;28;43462;-63
2021/12/13 00:34:03;;;;;;;1.60;1.50;;;22.20;47.00;;;;;;5052199;28;43514;-65
2021/12/13 00:36:51;;;;;;;1.40;1.30;;;22.20;47.00;;;;;;5071736;28;43795;-63
2021/12/13 00:39:47;;;;;;;1.52;1.33;;;22.20;47.00;;;;;;5056469;28;43474;-63
2021/12/13 00:42:15;;;;;;;1.98;1.40;;;22.20;47.00;;;;;;5063767;28;43329;-65
2021/12/13 00:44:53;;;;;;;1.77;1.20;;;22.20;47.00;;;;;;5067328;28;43640;-63
2021/12/13 00:47:27;;;;;;;1.48;1.15;;;22.20;47.00;;;;;;5029304;28;44160;-64
2021/12/13 00:50:05;;;;;;;1.55;1.35;;;22.20;47.00;;;;;;5054022;28;43461;-64
2021/12/13 00:52:34;;;;;;;1.45;1.35;;;22.20;47.00;;;;;;5069124;28;43435;-63
2021/12/13 00:55:13;;;;;;;1.25;1.15;;;22.20;47.00;;;;;;5064198;28;43658;-64
2021/12/13 00:57:50;;;;;;;1.30;1.20;;;22.10;47.00;;;;;;5055598;28;44969;-63
2021/12/13 01:00:24;;;;;;;1.30;1.08;;;22.20;47.10;;;;;;5059581;28;43383;-65
2021/12/13 01:03:02;;;;;;;1.40;1.30;;;22.10;47.10;;;;;;5066825;28;43434;-65
2021/12/13 01:05:53;;;;;;;1.80;1.25;;;22.10;47.10;;;;;;5058763;28;43555;-64
2021/12/13 01:08:50;;;;;;;1.88;1.60;;;22.10;47.10;;;;;;5058330;28;44033;-63
2021/12/13 01:11:52;;;;;;;1.45;1.30;;;22.10;47.10;;;;;;5067522;28;43351;-62
2021/12/13 01:14:45;;;;;;;1.30;1.20;;;22.10;47.10;;;;;;5065686;28;43554;-63
2021/12/13 01:17:36;;;;;;;1.33;1.20;;;22.10;47.20;;;;;;5056352;28;44089;-63
2021/12/13 01:20:25;;;;;;;1.52;1.42;;;22.10;47.20;;;;;;5069059;28;43805;-64
2021/12/13 01:23:04;;;;;;;2.10;1.30;;;22.10;47.30;;;;;;5050701;28;44842;-63
2021/12/13 01:28:12;;;;;;;1.40;1.30;;;22.10;47.20;;;;;;5058994;28;44037;-64
2021/12/13 01:30:46;;;;;;;1.65;1.50;;;22.00;47.20;;;;;;5062500;28;43854;-63
2021/12/13 01:33:16;;;;;;;1.25;1.20;;;22.00;47.20;;;;;;5062350;28;43436;-65
2021/12/13 01:35:49;;;;;;;1.23;1.13;;;22.00;47.20;;;;;;5035646;28;43493;-64
2021/12/13 01:38:34;;;;;;;1.38;1.30;;;22.00;47.20;;;;;;5063043;28;43451;-64
2021/12/13 01:41:09;;;;;;;1.52;1.20;;;22.00;47.20;;;;;;5070542;28;44046;-64
2021/12/13 01:43:43;;;;;;;1.23;1.13;;;22.00;47.20;;;;;;5055344;28;45051;-65
2021/12/13 01:46:11;;;;;;;1.40;1.23;;;22.00;47.20;;;;;;5047980;28;43439;-64
2021/12/13 01:48:42;;;;;;;1.60;1.42;;;22.00;47.20;;;;;;5047577;28;43611;-64
2021/12/13 01:51:19;;;;;;;1.08;1.00;;;22.00;47.20;;;;;;5072689;28;44973;-62
2021/12/13 01:53:54;;;;;;;1.83;1.23;;;22.00;47.20;;;;;;5055155;28;43398;-63
2021/12/13 01:56:40;;;;;;;1.23;1.10;;;22.00;47.30;;;;;;5069026;28;43466;-65
2021/12/13 02:02:23;;;;;;;1.52;1.27;;;21.90;47.20;;;;;;5030260;28;44790;-63
2021/12/13 02:05:05;;;;;;;1.17;1.08;;;22.00;47.30;;;;;;5049136;28;43939;-64
2021/12/13 02:07:53;;;;;;;1.13;1.02;;;21.90;47.30;;;;;;5058968;28;43448;-64
2021/12/13 02:10:33;;;;;;;1.05;1.00;;;21.90;47.30;;;;;;5059791;28;43558;-63
2021/12/13 02:13:10;;;;;;;1.30;1.20;;;21.90;47.30;;;;;;5043732;28;44934;-64
2021/12/13 02:18:30;;;;;;;1.23;1.13;;;21.90;47.40;;;;;;5068381;28;43519;-62
2021/12/13 02:21:05;;;;;;;;;;;21.90;47.40;;;;;;5059480;28;43426;-64
2021/12/13 02:23:37;;;;;;;1.50;1.23;;;21.90;47.40;;;;;;5067663;28;44333;-64
2021/12/13 02:26:05;;;;;;;1.80;1.25;;;21.80;47.40;;;;;;5061612;28;43651;-65
2021/12/13 02:28:36;;;;;;;1.23;1.13;;;21.80;47.40;;;;;;5065015;28;43473;-62
2021/12/13 02:31:19;;;;;;;1.23;1.13;;;21.80;47.40;;;;;;5057410;28;43553;-64
2021/12/13 02:33:48;;;;;;;1.73;1.38;;;21.80;47.40;;;;;;5058479;28;43964;-64
2021/12/13 02:36:19;;;;;;;0.90;0.90;;;21.90;47.40;;;;;;5061838;28;43402;-64
2021/12/13 02:38:49;;;;;;;1.10;1.00;;;21.80;47.30;;;;;;5062477;28;43476;-64
2021/12/13 02:41:20;;;;;;;1.20;1.10;;;21.80;47.40;;;;;;5062563;28;44090;-64
2021/12/13 02:43:53;;;;;;;1.40;1.15;;;21.80;47.40;;;;;;5060580;28;44044;-64
2021/12/13 02:46:20;;;;;;;1.30;1.20;;;21.80;47.40;;;;;;5042908;28;43476;-64
2021/12/13 02:49:01;;;;;;;1.30;1.20;;;21.80;47.40;;;;;;5062965;28;43448;-62
2021/12/13 02:51:37;;;;;;;1.50;1.00;;;21.80;47.40;;;;;;5059366;28;43418;-63
2021/12/13 02:54:22;;;;;;;1.23;1.13;;;21.80;47.40;;;;;;5057558;28;43762;-64
2021/12/13 02:57:00;;;;;;;1.40;1.30;;;21.80;47.50;;;;;;5063257;28;43452;-64
2021/12/13 02:59:32;;;;;;;1.27;1.10;;;21.80;47.50;;;;;;5047077;28;43602;-64
2021/12/13 03:02:06;;;;;;;1.48;1.10;;;21.80;47.50;;;;;;5053491;28;43454;-63
2021/12/13 03:04:34;;;;;;;1.35;1.25;;;21.70;47.50;;;;;;5062864;28;43757;-64
2021/12/13 03:07:05;;;;;;;1.98;1.15;;;21.80;47.50;;;;;;5051686;28;43418;-64
2021/12/13 03:09:36;;;;;;;1.10;1.10;;;21.80;47.50;;;;;;5048948;28;43462;-64
2021/12/13 03:12:05;;;;;;;;;;;21.70;47.40;;;;;;5068524;28;43989;-63
2021/12/13 03:14:41;;;;;;;1.27;1.17;;;21.70;48.10;;;;;;5064241;28;43878;-63
2021/12/13 03:17:26;;;;;;;1.40;1.30;;;21.70;48.10;;;;;;5052399;28;43494;-63
2021/12/13 03:20:14;;;;;;;1.75;1.65;;;21.70;47.50;;;;;;5065269;28;43434;-63
2021/12/13 03:23:36;;;;;;;1.50;1.40;;;21.70;47.50;;;;;;5061327;28;43448;-62
2021/12/13 03:26:24;;;;;;;1.77;1.42;;;21.70;47.50;;;;;;5004210;28;43746;-64
2021/12/13 03:29:00;;;;;;;2.65;1.52;;;21.70;47.50;;;;;;5067012;28;43493;-64
2021/12/13 03:31:39;;;;;;;1.63;1.10;;;21.70;47.50;;;;;;5064708;28;43420;-64
2021/12/13 03:34:31;;;;;;;2.05;1.40;;;21.70;47.50;;;;;;5056153;28;43652;-63
2021/12/13 03:37:12;;;;;;;1.33;1.15;;;21.70;47.50;;;;;;5061321;28;43823;-64
2021/12/13 03:39:51;;;;;;;;;;;21.70;47.40;;;;;;5050164;28;43817;-63
2021/12/13 03:42:29;;;;;;;1.15;1.00;;;21.70;47.40;;;;;;5066168;28;43471;-63
2021/12/13 03:45:01;;;;;;;1.17;1.08;;;21.70;47.60;;;;;;5065328;28;43446;-64
2021/12/13 03:47:37;;;;;;;1.17;1.08;;;21.60;47.50;;;;;;5068947;28;43804;-62
2021/12/13 03:50:20;;;;;;;1.42;1.10;;;21.70;47.50;;;;;;5060379;28;43411;-63
2021/12/13 03:52:50;;;;;;;1.85;1.10;;;21.60;47.40;;;;;;5041893;28;43506;-63
2021/12/13 03:55:22;;;;;;;1.58;1.20;;;21.60;47.40;;;;;;5057162;28;43443;-64
2021/12/13 03:57:56;;;;;;;2.00;1.20;;;21.70;47.40;;;;;;5058356;28;43860;-63
2021/12/13 04:00:28;;;;;;;1.27;1.17;;;21.60;47.40;;;;;;5057309;28;43469;-62
2021/12/13 04:02:58;;;;;;;1.48;1.15;;;21.60;47.50;;;;;;5050707;28;43518;-64
2021/12/13 04:05:28;;;;;;;2.00;1.23;;;21.60;47.40;;;;;;5066378;28;43452;-65
2021/12/13 04:08:01;;;;;;;1.80;1.30;;;21.60;47.40;;;;;;5067148;28;44680;-65
2021/12/13 04:10:33;;;;;;;1.95;1.25;;;21.60;47.40;;;;;;5050019;28;43445;-64
2021/12/13 04:13:10;;;;;;;2.47;1.33;;;21.60;47.50;;;;;;5056939;28;43464;-65
2021/12/13 04:16:14;;;;;;;1.88;1.30;;;21.60;47.50;;;;;;5061583;28;43558;-63
2021/12/13 04:21:34;;;;;;;2.35;1.10;;;21.60;47.50;;;;;;5055009;28;43463;-62
2021/12/13 04:24:05;;;;;;;1.45;1.30;;;21.60;47.50;;;;;;5066997;28;43542;-63
2021/12/13 04:26:42;;;;;;;2.10;1.45;;;21.60;47.50;;;;;;5074244;28;43425;-64
2021/12/13 04:29:26;;;;;;;1.23;0.90;;;21.50;48.20;;;;;;5057245;28;44807;-64
2021/12/13 04:31:54;;;;;;;2.28;1.23;;;21.50;47.50;;;;;;5051543;28;43525;-64
2021/12/13 04:34:25;;;;;;;2.53;1.20;;;21.50;47.60;;;;;;5074166;28;43440;-65
2021/12/13 04:37:16;;;;;;;1.90;1.38;;;21.50;47.60;;;;;;5056881;28;43636;-62
2021/12/13 04:39:51;;;;;;;1.48;1.17;;;21.50;47.60;;;;;;5054770;28;44053;-64
2021/12/13 04:42:20;;;;;;;1.73;1.10;;;21.50;47.60;;;;;;5058373;28;43779;-64
2021/12/13 04:45:11;;;;;;;1.85;1.10;;;21.50;47.70;;;;;;5062307;28;43510;-64
2021/12/13 04:47:54;;;;;;;1.73;1.20;;;21.50;47.60;;;;;;5056656;28;43384;-63
2021/12/13 04:50:52;;;;;;;2.70;1.75;;;21.50;47.60;;;;;;5059324;28;43990;-64
2021/12/13 04:53:37;;;;;;;1.58;1.15;;;21.50;47.50;;;;;;5070248;28;43387;-64
2021/12/13 04:56:10;;;;;;;1.60;1.10;;;21.50;47.70;;;;;;5066873;28;43336;-63
2021/12/13 04:58:44;;;;;;;3.25;1.20;;;21.40;47.60;;;;;;5064263;28;43418;-65
2021/12/13 05:01:14;;;;;;;1.40;1.05;;;21.40;47.60;;;;;;5069345;28;44049;-63
2021/12/13 05:03:52;;;;;;;2.20;1.30;;;21.40;47.60;;;;;;5072627;28;43953;-64
2021/12/13 05:06:24;;;;;;;2.80;1.20;;;21.40;47.60;;;;;;5066976;28;43522;-64
2021/12/13 05:08:56;;;;;;;1.77;0.98;;;21.40;47.60;;;;;;5061860;28;43442;-63
2021/12/13 05:11:31;;;;;;;1.50;0.93;;;21.40;47.60;;;;;;5056343;28;45166;-63
2021/12/13 05:14:00;;;;;;;1.83;1.00;;;21.40;47.60;;;;;;5065849;28;44211;-64
2021/12/13 05:16:53;;;;;;;2.65;1.20;;;21.40;47.70;;;;;;5062465;28;43818;-63
2021/12/13 05:19:34;;;;;;;1.85;1.10;;;21.40;47.60;;;;;;5067774;28;43425;-64
2021/12/13 05:22:06;;;;;;;2.17;1.00;;;21.40;47.70;;;;;;5056267;28;44038;-64
2021/12/13 05:24:50;;;;;;;1.73;0.90;;;21.40;47.60;;;;;;5047609;28;45208;-63
2021/12/13 05:27:29;;;;;;;1.52;1.02;;;21.40;47.60;;;;;;5062544;28;43917;-63
2021/12/13 05:30:23;;;;;;;1.23;0.90;;;21.40;47.60;;;;;;5053843;28;43435;-64
2021/12/13 05:32:55;;;;;;;1.85;1.23;;;21.40;47.60;;;;;;5036023;28;43938;-64
2021/12/13 05:35:28;;;;;;;0.95;0.70;;;21.40;47.60;;;;;;5047541;28;44459;-64
2021/12/13 05:38:03;;;;;;;1.25;1.10;;;21.30;47.50;;;;;;5060282;28;43397;-63
2021/12/13 05:40:44;;;;;;;0.93;0.82;;;21.40;47.60;;;;;;5043134;28;43413;-64
2021/12/13 05:43:23;;;;;;;0.88;0.73;;;21.30;47.60;;;;;;5043155;28;44921;-63
2021/12/13 05:46:03;;;;;;;1.45;1.20;;;21.40;47.70;;;;;;5059276;28;43944;-65
2021/12/13 05:48:37;;;;;;;1.42;0.80;;;21.40;47.60;;;;;;5048523;28;43469;-64
2021/12/13 05:51:22;;;;;;;1.17;0.90;;;21.30;47.60;;;;;;5054256;28;43539;-64
2021/12/13 05:54:02;;;;;;;1.58;0.80;;;21.30;47.50;;;;;;5063880;28;43982;-63
2021/12/13 05:56:41;;;;;;;1.30;0.93;;;21.30;47.50;;;;;;5069613;28;43432;-65
2021/12/13 05:59:12;;;;;;;1.02;0.80;;;21.30;47.50;;;;;;5068786;28;44036;-64
2021/12/13 06:02:00;;;;;;;;;;;21.30;47.60;;;;;;5044655;28;43451;-64
2021/12/13 06:04:55;;;;;;;1.25;0.98;;;21.30;47.60;;;;;;5044162;28;45903;-63
2021/12/13 06:07:30;;;;;;;0.98;0.90;;;21.30;47.60;;;;;;5060245;28;43375;-63
2021/12/13 06:10:11;;;;;;;2.58;0.90;;;21.30;47.70;;;;;;5047340;28;43519;-63
2021/12/13 06:12:38;;;;;;;0.82;0.82;;;21.30;47.60;;;;;;5049003;28;43395;-63
2021/12/13 06:15:29;;;;;;;1.23;0.90;;;21.30;47.60;;;;;;5066347;28;43797;-63
2021/12/13 06:18:05;;;;;;;1.08;0.95;;;21.30;47.60;;;;;;5051144;28;43537;-63
2021/12/13 06:21:10;;;;;;;1.80;1.00;;;21.30;48.30;;;;;;5053731;28;43492;-64
2021/12/13 06:23:39;;;;;;;0.85;0.80;;;21.30;47.50;;;;;;5056981;28;43484;-64
2021/12/13 06:26:11;;;;;;;1.17;0.85;;;21.30;47.60;;;;;;5060309;28;43805;-63
2021/12/13 06:28:44;;;;;;;0.75;0.75;;;21.30;47.70;;;;;;5060946;28;43823;-64
2021/12/13 06:31:19;;;;;;;0.60;0.60;;;21.30;47.50;;;;;;5049538;28;43484;-64
2021/12/13 06:34:00;;;;;;;0.98;0.68;;;21.30;47.50;;;;;;5065003;28;43478;-63
2021/12/13 06:36:57;;;;;;;0.70;0.70;;;21.30;47.60;;;;;;5071729;28;43788;-64
2021/12/13 06:39:30;;;;;;;0.85;0.85;;;21.30;47.60;;;;;;5052259;28;43503;-63
2021/12/13 06:42:00;;;;;;;0.70;0.57;;;21.30;47.50;;;;;;5053541;28;43472;-63
2021/12/13 06:44:34;;;;;;;1.13;0.80;;;21.30;47.60;;;;;;5069484;27;43437;-64
2021/12/13 06:47:10;;;;;;;0.65;0.60;;;21.30;47.50;;;;;;5029975;28;44184;-64
2021/12/13 06:49:48;;;;;;;1.33;0.65;;;21.30;47.60;;;;;;5036947;28;43970;-64
2021/12/13 06:52:15;;;;;;;0.80;0.80;;;21.30;47.60;;;;;;5049083;28;43502;-63
2021/12/13 06:54:53;;;;;;;1.08;0.70;;;21.30;47.60;;;;;;5063299;28;43501;-63
2021/12/13 06:57:41;;;;;;;0.80;0.80;;;21.30;47.50;;;;;;5053378;28;44666;-64
2021/12/13 07:00:21;;;;;;;1.02;0.73;;;21.30;47.60;;;;;;5050645;28;44055;-63
2021/12/13 07:02:58;;;;;;;0.95;0.77;;;21.30;47.60;;;;;;5062351;28;43465;-64
2021/12/13 07:05:34;;;;;;;0.70;0.60;;;21.30;47.70;;;;;;5068461;28;43557;-63
2021/12/13 07:08:11;;;;;;;0.70;0.70;;;21.30;47.60;;;;;;5052166;28;45084;-64
2021/12/13 07:10:43;;;;;;;0.75;0.70;;;21.30;47.60;;;;;;5061529;28;43423;-64
2021/12/13 07:13:20;;;;;;;0.82;0.57;;;21.30;47.60;;;;;;5031293;28;43503;-64
2021/12/13 07:16:13;;;;;;;0.95;0.70;;;21.30;47.60;;;;;;5063940;28;43537;-64
2021/12/13 07:19:02;;;;;;;1.00;0.80;;;21.30;47.70;;;;;;5037017;28;43835;-64
2021/12/13 07:21:43;;;;;;;0.73;0.70;;;21.30;47.70;;;;;;5058751;28;43478;-63
2021/12/13 07:24:15;;;;;;;1.43;0.70;;;21.30;47.70;;;;;;5053894;28;43461;-63
2021/12/13 07:27:12;;;;;;;0.85;0.70;;;21.30;47.70;;;;;;5042469;28;43500;-64
2021/12/13 07:29:48;;;;;;;1.70;0.90;;;21.30;47.70;;;;;;5050031;28;43952;-62
2021/12/13 07:32:21;;;;;;;0.68;0.68;;;21.30;47.70;;;;;;5063051;28;43460;-64
2021/12/13 07:34:52;;;;;;;1.02;0.70;;;21.30;47.80;;;;;;5067657;28;43471;-64
2021/12/13 07:37:35;;;;;;;0.98;0.65;;;21.30;47.70;;;;;;5064955;28;43463;-63
2021/12/13 07:40:23;;;;;;;0.68;0.68;;;21.30;47.60;;;;;;5054658;28;43568;-62
2021/12/13 07:43:13;;;;;;;1.50;0.70;;;21.30;47.60;;;;;;5066759;28;43684;-62
2021/12/13 07:45:45;;;;;;;1.43;1.00;;;21.30;47.60;;;;;;5057647;28;43564;-63
2021/12/13 07:48:20;;;;;;;1.17;0.80;;;21.30;47.70;;;;;;5067902;28;43453;-64
2021/12/13 07:51:06;;;;;;;1.75;0.75;;;21.30;47.60;;;;;;5069950;28;44160;-62
2021/12/13 07:53:50;;;;;;;1.15;0.70;;;21.30;47.60;;;;;;5050751;28;43552;-62
2021/12/13 07:56:29;;;;;;;0.65;0.60;;;21.30;47.60;;;;;;5063711;28;43483;-64
2021/12/13 07:59:11;;;;;;;1.58;0.80;;;21.30;47.60;;;;;;5058305;28;43588;-64
2021/12/13 08:02:25;;;;;;;1.10;0.93;;;21.30;47.60;;;;;;5066301;28;44684;-63
2021/12/13 08:05:13;;;;;;;2.22;0.90;;;21.30;47.60;;;;;;5053475;28;43939;-62
2021/12/13 08:07:44;;;;;;;1.13;1.00;;;21.40;47.60;;;;;;5062251;28;43564;-65
2021/12/13 08:10:40;;;;;;;0.95;0.80;;;21.30;47.60;;;;;;5059014;28;43558;-64
2021/12/13 08:13:15;;;;;;;1.35;0.63;;;21.30;47.60;;;;;;5052072;28;43818;-64
2021/12/13 08:15:59;;;;;;;0.75;0.75;;;21.30;47.50;;;;;;5066011;28;43562;-65
2021/12/13 08:18:43;;;;;;;1.27;0.90;;;21.40;47.60;;;;;;5056304;28;43416;-63
2021/12/13 08:21:26;;;;;;;0.95;0.80;;;21.40;47.60;;;;;;5058181;28;43483;-64
2021/12/13 08:24:00;;;;;;;0.98;0.90;;;21.30;47.50;;;;;;5045899;28;43771;-63
2021/12/13 08:26:38;;;;;;;0.70;0.70;;;21.40;47.60;;;;;;5057945;28;43449;-63
2021/12/13 08:29:18;;;;;;;1.20;0.93;;;21.40;47.60;;;;;;5042872;28;43431;-63
2021/12/13 08:31:50;;;;;;;0.80;0.80;;;21.40;47.60;;;;;;5046180;28;43579;-63
2021/12/13 08:34:28;;;;;;;1.60;1.00;;;21.40;47.60;;;;;;5033042;28;43794;-65
2021/12/13 08:36:58;;;;;;;1.05;0.93;;;21.40;47.60;;;;;;5029311;28;43631;-64
2021/12/13 08:39:36;;;;;;;2.20;1.08;;;21.40;47.60;;;;;;5030405;28;43737;-63
2021/12/13 08:42:13;;;;;;;1.13;1.00;;;21.40;47.60;;;;;;5047339;28;43592;-64
2021/12/13 08:44:52;;;;;;;1.15;1.05;;;21.50;47.70;;;;;;5057208;28;44681;-63
2021/12/13 08:47:26;;;;;;;2.53;1.17;;;21.40;47.70;;;;;;5055393;28;44118;-64
2021/12/13 08:50:31;;;;;;;2.80;1.27;;;21.50;47.80;;;;;;5047613;28;43628;-63
2021/12/13 08:53:06;;;;;;;1.08;1.00;;;21.50;47.90;;;;;;5037507;28;43617;-63
2021/12/13 08:55:43;;;;;;;1.90;1.08;;;21.50;47.80;;;;;;5049860;28;44712;-63
2021/12/13 08:58:17;;;;;;;1.25;1.05;;;21.50;47.80;;;;;;5038903;28;43686;-65
2021/12/13 09:00:51;;;;;;;1.27;1.17;;;21.50;47.70;;;;;;5055384;28;44875;-64
2021/12/13 09:03:25;;;;;;;1.30;1.10;;;21.50;47.70;;;;;;5052603;28;43535;-63
2021/12/13 09:06:10;;;;;;;1.23;1.10;;;21.50;47.80;;;;;;5053420;28;44042;-63
2021/12/13 09:08:49;;;;;;;1.35;1.25;;;21.60;47.80;;;;;;5037734;28;43617;-63
2021/12/13 09:11:26;;;;;;;3.50;1.20;;;21.60;47.80;;;;;;5054504;28;43608;-64
2021/12/13 09:14:03;;;;;;;1.83;1.20;;;21.60;47.90;;;;;;5054183;28;43606;-63
2021/12/13 09:17:07;;;;;;;1.20;1.10;;;21.60;47.80;;;;;;5030344;28;44117;-63
2021/12/13 09:19:45;;;;;;;1.27;1.00;;;21.60;47.80;;;;;;5049733;28;43614;-62
2021/12/13 09:22:34;;;;;;;2.55;1.48;;;21.60;47.90;;;;;;5050864;28;43613;-63
2021/12/13 09:25:27;;;;;;;1.10;1.00;;;21.60;47.70;;;;;;5036325;28;44695;-63
2021/12/13 09:28:02;;;;;;;1.10;1.00;;;21.60;47.70;;;;;;5056545;28;44213;-64
2021/12/13 09:30:39;;;;;;;2.00;1.15;;;21.60;47.70;;;;;;5036309;28;43682;-63
2021/12/13 09:33:32;;;;;;;1.48;1.38;;;21.60;47.70;;;;;;5042637;28;43598;-61
2021/12/13 09:36:26;;;;;;;1.60;1.38;;;21.60;47.70;;;;;;5024235;28;43547;-64
2021/12/13 09:39:12;;;;;;;2.13;1.50;;;21.60;47.70;;;;;;5040654;28;44724;-63
2021/12/13 09:41:46;;;;;;;1.75;1.50;;;21.60;47.80;;;;;;5046208;28;44932;-64
2021/12/13 09:44:32;;;;;;;1.30;1.20;;;21.60;47.70;;;;;;5033541;28;43639;-63
2021/12/13 09:47:12;;;;;;;1.85;1.20;;;21.60;47.70;;;;;;5051182;28;43506;-62
2021/12/13 09:49:45;;;;;;;1.33;1.23;;;21.60;47.70;;;;;;5053497;28;44001;-62
2021/12/13 09:52:18;;;;;;;1.98;1.40;;;21.60;47.70;;;;;;5053777;28;43676;-64
2021/12/13 09:54:55;;;;;;;1.33;1.23;;;21.70;47.80;;;;;;5037537;28;43557;-63
2021/12/13 09:57:36;;;;;;;1.27;1.17;;;21.70;47.70;;;;;;5053982;28;44144;-62
2021/12/13 10:00:08;;;;;;;;;;;21.70;47.80;;;;;;5056402;28;43786;-63
2021/12/13 10:02:40;;;;;;;1.50;1.40;;;21.70;47.80;;;;;;5037226;28;45091;-62
2021/12/13 10:05:13;;;;;;;1.75;1.27;;;21.70;47.80;;;;;;5060743;28;43717;-62
2021/12/13 10:07:43;;;;;;;1.85;1.42;;;21.70;47.80;;;;;;5028727;28;43589;-63
2021/12/13 10:10:17;;;;;;;1.30;1.20;;;21.70;47.70;;;;;;5054193;28;43873;-63
2021/12/13 10:12:51;;;;;;;1.30;1.20;;;21.70;47.70;;;;;;5056624;28;43648;-63
2021/12/13 10:15:27;;;;;;;1.60;1.30;;;21.80;47.70;;;;;;5036468;28;43596;-63
2021/12/13 10:18:01;;;;;;;1.42;1.20;;;21.80;47.60;;;;;;5050333;28;45411;-63
2021/12/13 10:20:47;;;;;;;1.20;1.20;;;21.80;47.60;;;;;;5047365;28;43644;-62
2021/12/13 10:23:17;;;;;;;1.30;1.20;;;21.80;47.60;;;;;;5055055;28;44757;-64
2021/12/13 10:25:48;;;;;;;1.70;1.50;;;21.80;47.60;;;;;;5054408;28;43565;-62
2021/12/13 10:28:23;;;;;;;1.40;1.23;;;21.80;47.50;;;;;;5055740;28;43575;-62
2021/12/13 10:31:00;;;;;;;1.33;1.23;;;21.80;47.60;;;;;;5050112;28;44441;-64
2021/12/13 10:33:31;;;;;;;1.30;1.20;;;21.80;47.50;;;;;;5060210;28;44349;-62
2021/12/13 10:36:02;;;;;;;1.80;1.60;;;21.80;47.50;;;;;;5042997;28;44298;-63
2021/12/13 10:38:51;;;;;;;1.48;1.30;;;21.80;47.50;;;;;;5058911;28;43681;-64
2021/12/13 10:41:27;;;;;;;1.30;1.20;;;21.90;47.60;;;;;;5049761;28;44717;-64
2021/12/13 10:44:02;;;;;;;1.73;1.60;;;21.90;47.60;;;;;;5049646;28;44122;-62
2021/12/13 10:46:37;;;;;;;1.48;1.33;;;21.90;47.60;;;;;;5051410;28;43675;-62
2021/12/13 10:49:21;;;;;;;1.60;1.40;;;21.90;47.60;;;;;;5054244;28;43846;-63
2021/12/13 10:51:56;;;;;;;3.08;1.60;;;21.90;47.60;;;;;;5053265;28;44707;-64
2021/12/13 10:54:33;;;;;;;4.57;2.00;;;21.90;47.70;;;;;;5050882;28;43577;-63
2021/12/13 10:57:06;;;;;;;3.88;1.80;;;21.90;47.70;;;;;;5051573;28;43589;-64
2021/12/13 10:59:35;;;;;;;2.83;1.85;;;21.90;47.60;;;;;;5057822;28;44034;-63
2021/12/13 11:02:09;;;;;;;2.30;2.03;;;21.90;47.60;;;;;;5056685;28;45008;-63
2021/12/13 11:04:42;;;;;;;3.67;2.22;;;21.90;47.60;;;;;;5049224;28;43681;-63
2021/12/13 11:07:12;;;;;;;3.47;2.38;;;21.90;47.60;;;;;;5052542;28;43569;-62
2021/12/13 11:09:43;;;;;;;2.72;2.08;;;21.90;47.70;;;;;;5034806;28;43652;-63
2021/12/13 11:12:18;;;;;;;3.83;2.40;;;21.90;47.80;;;;;;5037565;28;43676;-63
2021/12/13 11:14:49;;;;;;;3.67;2.28;;;22.00;47.80;;;;;;5034557;28;44275;-63
2021/12/13 11:17:21;;;;;;;4.20;2.13;;;22.00;47.80;;;;;;5046784;28;43599;-63
2021/12/13 11:19:54;;;;;;;4.68;2.60;;;22.00;47.80;;;;;;5030359;28;43603;-63
2021/12/13 11:22:27;;;;;;;3.53;2.03;;;22.00;47.90;;;;;;5018303;28;46272;-64
2021/12/13 11:25:00;;;;;;;3.78;2.13;;;22.00;47.80;;;;;;5048577;28;44890;-63
2021/12/13 11:27:32;;;;;;;4.72;2.47;;;22.00;47.70;;;;;;5056049;28;43580;-63
2021/12/13 11:30:05;;;;;;;3.72;2.30;;;22.10;47.80;;;;;;5048740;27;44181;-63
2021/12/13 11:32:38;;;;;;;3.25;2.22;;;22.10;47.80;;;;;;5019159;28;43969;-64
2021/12/13 11:35:16;;;;;;;4.60;2.22;;;22.10;47.80;;;;;;5053160;28;43595;-64
2021/12/13 11:38:26;;;;;;;3.78;2.10;;;22.10;47.80;;;;;;5045896;28;43487;-63
2021/12/13 11:41:24;;;;;;;3.92;2.28;;;22.10;47.70;;;;;;5043421;28;43613;-64
2021/12/13 11:44:23;;;;;;;3.35;2.35;;;22.10;47.90;;;;;;5049314;28;43853;-64
2021/12/13 11:47:21;;;;;;;3.13;2.28;;;22.20;47.80;;;;;;5059927;28;43600;-64
2021/12/13 11:50:27;;;;;;;2.78;2.30;;;22.20;47.90;;;;;;5049861;28;44931;-63
2021/12/13 11:53:32;;;;;;;3.78;2.38;;;22.20;47.80;;;;;;5047597;28;43671;-63
2021/12/13 11:56:36;;;;;;;3.00;2.10;;;22.20;47.80;;;;;;5048285;28;44190;-62
2021/12/13 11:59:19;;;;;;;3.65;2.30;;;22.20;47.70;;;;;;5050230;28;43593;-63
2021/12/13 12:02:02;;;;;;;3.40;2.47;;;22.20;47.70;;;;;;5033906;28;43662;-63
2021/12/13 12:05:18;;;;;;;2.92;2.30;;;22.20;47.70;;;;;;5054226;28;43646;-63
2021/12/13 12:08:25;;;;;;;5.18;2.25;;;22.20;47.70;;;;;;5055013;28;43784;-63
2021/12/13 12:11:11;;;;;;;3.40;1.90;;;22.20;48.20;;;;;;5035143;28;43605;-64
2021/12/13 12:13:52;;;;;;;2.28;2.00;;;22.20;47.70;;;;;;5050421;28;43681;-63
2021/12/13 12:16:23;;;;;;;2.55;2.10;;;22.20;47.70;;;;;;5056997;28;43656;-62
2021/12/13 12:18:52;;;;;;;3.35;2.35;;;22.30;47.70;;;;;;5051248;28;43811;-63
2021/12/13 12:21:31;;;;;;;3.35;2.00;;;22.30;47.60;;;;;;5052434;28;44282;-63
2021/12/13 12:24:19;;;;;;;2.47;2.20;;;22.30;47.60;;;;;;5051269;28;43560;-63
2021/12/13 12:26:59;;;;;;;3.10;1.98;;;22.40;47.70;;;;;;5056930;28;43656;-63
2021/12/13 12:29:32;;;;;;;2.67;1.88;;;22.40;47.60;;;;;;5056972;28;43804;-63
2021/12/13 12:32:11;;;;;;;2.35;2.00;;;22.40;47.50;;;;;;5060732;28;43695;-64
2021/12/13 12:35:11;;;;;;;3.72;2.20;;;22.40;47.50;;;;;;5056825;28;43529;-62
2021/12/13 12:37:57;;;;;;;3.17;1.90;;;22.40;48.20;;;;;;5056609;28;44502;-62
2021/12/13 12:40:39;;;;;;;2.83;1.88;;;22.40;47.50;;;;;;5053843;28;44709;-63
2021/12/13 12:43:10;;;;;;;3.05;1.83;;;22.40;47.50;;;;;;5050260;28;43802;-64
2021/12/13 12:45:46;;;;;;;2.08;1.88;;;22.50;47.50;;;;;;5045525;28;44852;-62
2021/12/13 12:48:16;;;;;;;3.30;2.10;;;22.40;47.50;;;;;;5054299;28;43662;-62
2021/12/13 12:50:54;;;;;;;2.25;2.05;;;22.40;47.50;;;;;;5057854;28;44657;-62
2021/12/13 12:54:03;;;;;;;3.25;2.20;;;22.40;47.50;;;;;;5038423;28;43608;-62
2021/12/13 12:56:42;;;;;;;3.15;2.10;;;22.40;47.40;;;;;;5023727;28;44859;-62
2021/12/13 12:59:19;;;;;;;2.47;1.90;;;22.40;47.50;;;;;;5053801;28;43851;-63
2021/12/13 13:01:59;;;;;;;4.07;1.92;;;22.40;47.50;;;;;;5057632;28;45162;-62
2021/12/13 13:04:38;;;;;;;3.65;2.00;;;22.40;47.50;;;;;;5057245;28;43949;-62
2021/12/13 13:07:10;;;;;;;3.55;1.90;;;22.40;47.60;;;;;;5058603;28;44012;-63
2021/12/13 13:09:45;;;;;;;3.58;1.90;;;22.40;48.20;;;;;;5055977;28;43577;-63
2021/12/13 13:12:36;;;;;;;5.10;2.28;;;22.40;47.50;;;;;;5053942;28;45027;-63
2021/12/13 13:15:18;;;;;;;2.30;2.00;;;22.40;47.70;;;;;;5041261;28;43974;-63
2021/12/13 13:17:56;;;;;;;3.00;2.20;;;22.50;47.80;;;;;;5058275;28;43717;-64
2021/12/13 13:20:34;;;;;;;2.20;1.73;;;22.40;47.70;;;;;;5048543;28;43578;-62
2021/12/13 13:23:03;;;;;;;2.20;2.00;;;22.50;47.70;;;;;;5058565;28;43810;-62
2021/12/13 13:25:48;;;;;;;2.97;2.00;;;22.50;47.60;;;;;;5054664;28;43564;-64
2021/12/13 13:28:18;;;;;;;2.53;1.85;;;22.50;47.60;;;;;;5043874;28;43743;-63
2021/12/13 13:31:24;;;;;;;3.45;2.15;;;22.50;47.50;;;;;;5053568;28;43687;-62
2021/12/13 13:33:54;;;;;;;3.05;2.15;;;22.50;47.50;;;;;;5021569;28;43721;-62
2021/12/13 13:36:53;;;;;;;2.33;1.77;;;22.50;47.50;;;;;;5043678;28;44860;-63
2021/12/13 13:39:33;;;;;;;2.30;2.00;;;22.50;47.50;;;;;;5053732;28;43555;-63
2021/12/13 13:42:25;;;;;;;3.28;2.00;;;22.50;47.50;;;;;;5058622;28;43629;-62
2021/12/13 13:44:58;;;;;;;2.20;2.00;;;22.50;47.50;;;;;;5049681;28;43796;-63
2021/12/13 13:47:32;;;;;;;2.63;1.83;;;22.50;47.50;;;;;;5045955;28;43794;-63
2021/12/13 13:50:22;;;;;;;1.98;1.70;;;22.60;47.40;;;;;;5047638;28;43614;-63
2021/12/13 13:52:52;;;;;;;2.35;1.80;;;22.50;47.40;;;;;;5030837;28;43602;-63
2021/12/13 13:55:57;;;;;;;2.05;1.60;;;22.60;47.50;;;;;;5049130;28;44801;-62
2021/12/13 13:58:36;;;;;;;2.95;1.83;;;22.50;47.40;;;;;;5030449;28;44059;-63
2021/12/13 14:01:06;;;;;;;2.88;2.10;;;22.50;47.40;;;;;;5033596;28;43607;-63
2021/12/13 14:03:44;;;;;;;2.72;1.92;;;22.60;47.40;;;;;;5053618;28;43646;-64